Time;durP1;ratioP1;P1;durP2;ratioP2;P2;SDS_P1;SDS_P2;PMS_P1;PMS_P2;Temp;Humidity;BMP_temperature;BMP_pressure;BME280_temperature;BME280_humidity;BME280_pressure;Samples;Min_cycle;Max_cycle;Signal;HPM_P1;HPM_P2
2021/03/22 00:00:29;;;;;;;3.83;1.17;;;;;;;0.35;67.63;100802.59;5021396;28;20068;-68
2021/03/22 00:02:55;;;;;;;4.00;1.00;;;;;;;0.34;67.71;100798.25;5022333;28;20033;-68
2021/03/22 00:05:21;;;;;;;4.40;1.20;;;;;;;0.31;67.85;100802.41;5024347;28;20064;-68
2021/03/22 00:07:48;;;;;;;3.50;0.90;;;;;;;0.34;66.86;100799.94;5024709;28;20068;-68
2021/03/22 00:10:14;;;;;;;3.60;1.30;;;;;;;0.32;67.84;100802.50;5029193;28;20095;-68
2021/03/22 00:12:39;;;;;;;6.10;1.23;;;;;;;0.32;68.26;100801.63;5021161;28;20034;-68
2021/03/22 00:15:06;;;;;;;5.73;1.23;;;;;;;0.31;67.32;100799.81;5023276;28;20503;-68
2021/03/22 00:17:32;;;;;;;7.60;1.47;;;;;;;0.28;67.92;100808.38;5024322;28;20048;-68
2021/03/22 00:19:58;;;;;;;5.57;1.20;;;;;;;0.21;68.08;100814.19;5022973;28;20039;-68
2021/03/22 00:22:23;;;;;;;5.13;1.20;;;;;;;0.16;68.46;100813.09;5021041;28;20034;-68
2021/03/22 00:24:49;;;;;;;4.87;1.10;;;;;;;0.18;68.07;100819.22;5020979;28;20044;-68
2021/03/22 00:27:15;;;;;;;6.80;1.13;;;;;;;0.16;68.35;100808.78;5024083;28;20163;-68
2021/03/22 00:29:40;;;;;;;3.70;1.27;;;;;;;0.10;68.74;100813.72;5024282;28;20095;-68
2021/03/22 00:32:06;;;;;;;7.53;1.50;;;;;;;0.10;68.36;100802.44;5021606;28;20080;-68
2021/03/22 00:34:31;;;;;;;6.00;1.43;;;;;;;0.05;68.42;100807.44;5020741;28;20038;-68
2021/03/22 00:36:57;;;;;;;4.93;1.30;;;;;;;0.08;68.55;100809.28;5021728;28;20033;-68
2021/03/22 00:39:22;;;;;;;5.47;1.77;;;;;;;0.03;68.78;100814.31;5024044;28;20091;-68
2021/03/22 00:41:47;;;;;;;6.23;1.50;;;;;;;0.02;68.86;100807.34;5024015;28;20041;-68
2021/03/22 00:44:13;;;;;;;4.73;1.60;;;;;;;-0.01;69.46;100802.91;5020567;28;20038;-68
2021/03/22 00:46:38;;;;;;;10.20;2.03;;;;;;;-0.01;68.67;100804.63;5020217;28;20038;-68
2021/03/22 00:49:04;;;;;;;4.60;1.40;;;;;;;-0.07;68.76;100802.66;5022659;28;20044;-69
2021/03/22 00:51:29;;;;;;;6.13;1.77;;;;;;;-0.07;68.99;100799.19;5023769;28;20123;-68
2021/03/22 00:53:55;;;;;;;6.37;1.50;;;;;;;-0.12;69.56;100804.19;5022956;28;20037;-68
2021/03/22 00:56:20;;;;;;;8.37;1.63;;;;;;;-0.15;69.41;100801.47;5020112;28;20033;-68
2021/03/22 00:58:46;;;;;;;8.83;2.10;;;;;;;-0.16;69.67;100804.84;5020388;28;20065;-68
2021/03/22 01:01:11;;;;;;;8.60;1.90;;;;;;;-0.20;69.82;100800.38;5023302;28;20041;-68
2021/03/22 01:03:37;;;;;;;7.13;1.83;;;;;;;-0.22;69.95;100802.03;5038741;28;20065;-68
2021/03/22 01:06:05;;;;;;;9.23;1.97;;;;;;;-0.19;70.68;100799.56;5021373;28;20033;-68
2021/03/22 01:08:35;;;;;;;8.47;1.80;;;;;;;-0.19;70.94;100794.38;5019795;28;20504;-68
2021/03/22 01:11:06;;;;;;;7.60;2.13;;;;;;;-0.19;71.14;100794.38;5021181;28;20087;-68
2021/03/22 01:13:35;;;;;;;6.37;1.80;;;;;;;-0.21;71.39;100788.22;5023511;28;20067;-68
2021/03/22 01:16:03;;;;;;;6.33;1.60;;;;;;;-0.19;71.35;100796.97;5020047;28;20403;-68
2021/03/22 01:18:32;;;;;;;12.63;3.30;;;;;;;-0.20;71.19;100789.13;5020011;28;20048;-68
2021/03/22 01:21:07;;;;;;;11.07;1.80;;;;;;;-0.23;71.37;100789.88;5021215;28;20120;-68
2021/03/22 01:23:32;;;;;;;9.00;1.80;;;;;;;-0.25;72.60;100791.53;5022030;28;20076;-68
2021/03/22 01:25:58;;;;;;;6.83;2.03;;;;;;;-0.30;72.38;100788.72;5021701;28;20061;-68
2021/03/22 01:28:23;;;;;;;10.67;2.03;;;;;;;-0.30;73.31;100787.84;5019830;28;20445;-68
2021/03/22 01:30:53;;;;;;;7.43;1.93;;;;;;;-0.28;73.48;100796.59;5019909;28;20033;-68
2021/03/22 01:33:25;;;;;;;8.00;2.23;;;;;;;-0.30;74.95;100793.91;5023355;28;20503;-68
2021/03/22 01:35:51;;;;;;;;;;;;;;;-0.25;74.88;100791.53;5023077;28;20065;-68
2021/03/22 01:38:16;;;;;;;11.70;2.37;;;;;;;-0.22;75.68;100783.88;5019730;28;19956;-68
2021/03/22 01:41:04;;;;;;;8.97;2.07;;;;;;;-0.19;75.42;100780.50;5034827;28;20073;-68
2021/03/22 01:43:47;;;;;;;13.90;2.53;;;;;;;-0.12;77.39;100788.63;5023390;28;20626;-69
2021/03/22 01:46:12;;;;;;;;;;;;;;;-0.09;78.07;100780.94;5019836;28;20042;-68
2021/03/22 01:48:38;;;;;;;17.60;2.47;;;;;;;-0.04;77.12;100774.25;5023839;28;20012;-68
2021/03/22 01:51:04;;;;;;;14.70;2.77;;;;;;;-0.04;77.98;100776.84;5022610;28;20033;-69
2021/03/22 01:53:30;;;;;;;12.73;2.63;;;;;;;-0.01;78.39;100782.13;5022742;28;20037;-68
2021/03/22 01:56:23;;;;;;;16.93;2.90;;;;;;;0.02;78.60;100776.19;5021510;28;20033;-68
2021/03/22 01:58:49;;;;;;;13.97;2.90;;;;;;;0.03;78.70;100782.25;5019509;28;20473;-68
2021/03/22 02:01:17;;;;;;;19.90;3.10;;;;;;;0.05;79.38;100778.91;5022770;28;20065;-68
2021/03/22 02:03:43;;;;;;;15.97;2.87;;;;;;;0.00;79.88;100777.88;5022522;28;20052;-68
2021/03/22 02:06:09;;;;;;;22.77;5.30;;;;;;;0.07;80.45;100771.19;5019673;28;20041;-68
2021/03/22 02:08:38;;;;;;;15.43;3.37;;;;;;;0.05;79.95;100771.13;5019224;28;20057;-68
2021/03/22 02:11:05;;;;;;;16.63;3.07;;;;;;;0.06;80.62;100769.44;5021151;28;20125;-68
2021/03/22 02:13:34;;;;;;;13.53;2.80;;;;;;;0.10;81.34;100779.97;5022641;28;20026;-68
2021/03/22 02:16:13;;;;;;;21.30;3.37;;;;;;;0.09;81.46;100787.72;5020713;28;20037;-68
2021/03/22 02:18:58;;;;;;;23.53;3.83;;;;;;;0.09;81.72;100785.13;5019429;28;20663;-68
2021/03/22 02:21:44;;;;;;;25.03;4.10;;;;;;;0.07;81.97;100784.16;5020981;28;20049;-68
2021/03/22 02:24:44;;;;;;;21.27;3.87;;;;;;;0.06;81.90;100774.63;5025935;28;20034;-68
2021/03/22 02:27:32;;;;;;;13.50;3.00;;;;;;;-0.02;81.91;100772.59;5023225;28;20052;-68
2021/03/22 02:30:24;;;;;;;21.77;3.77;;;;;;;-0.02;82.54;100775.19;5024145;28;20042;-68
2021/03/22 02:33:14;;;;;;;23.77;4.17;;;;;;;-0.07;83.31;100773.25;5025980;28;20566;-68
2021/03/22 02:35:46;;;;;;;21.90;4.10;;;;;;;-0.09;82.88;100782.66;5022525;28;20472;-68
2021/03/22 02:38:17;;;;;;;23.60;4.80;;;;;;;-0.07;82.65;100776.72;5025919;28;20037;-68
2021/03/22 02:41:00;;;;;;;20.67;4.60;;;;;;;-0.13;84.01;100784.25;5025991;28;20029;-68
2021/03/22 02:43:26;;;;;;;24.17;5.37;;;;;;;-0.13;83.30;100789.44;5022454;28;20045;-68
2021/03/22 02:45:55;;;;;;;21.73;5.00;;;;;;;-0.16;83.91;100784.09;5022743;28;20046;-68
2021/03/22 02:48:24;;;;;;;19.40;4.77;;;;;;;-0.20;83.35;100784.81;5025954;28;20037;-68
2021/03/22 02:51:01;;;;;;;34.17;5.70;;;;;;;-0.21;84.19;100783.03;5025460;28;20037;-68
2021/03/22 02:53:55;;;;;;;25.77;5.17;;;;;;;-0.24;83.89;100785.50;5031619;28;20029;-68
2021/03/22 02:56:43;;;;;;;27.83;5.17;;;;;;;-0.20;84.10;100790.00;5029524;28;20061;-68
2021/03/22 02:59:17;;;;;;;28.67;5.50;;;;;;;-0.20;84.10;100786.53;5025450;28;20041;-69
2021/03/22 03:02:00;;;;;;;24.70;5.47;;;;;;;-0.24;85.04;100794.19;5025860;28;20052;-68
2021/03/22 03:04:26;;;;;;;31.90;5.88;;;;;;;-0.22;85.38;100802.03;5022321;28;20116;-68
2021/03/22 03:06:55;;;;;;;32.27;6.17;;;;;;;-0.20;84.96;100795.19;5022587;28;20149;-68
2021/03/22 03:09:24;;;;;;;26.50;4.00;;;;;;;-0.23;85.57;100802.84;5025776;28;20037;-68
2021/03/22 03:11:51;;;;;;;28.13;4.63;;;;;;;-0.21;84.72;100798.59;5025506;28;20037;-68
2021/03/22 03:14:17;;;;;;;26.33;5.80;;;;;;;-0.15;85.41;100798.00;5022247;28;20025;-68
2021/03/22 03:16:42;;;;;;;29.90;6.00;;;;;;;-0.15;85.35;100814.44;5021881;28;20129;-68
2021/03/22 03:19:08;;;;;;;26.37;5.10;;;;;;;-0.08;85.20;100807.78;5024770;28;20052;-68
2021/03/22 03:21:33;;;;;;;33.23;6.00;;;;;;;-0.09;85.43;100813.78;5025619;28;20033;-68
2021/03/22 03:23:59;;;;;;;24.90;5.13;;;;;;;0.06;85.52;100813.56;5023963;28;20544;-68
2021/03/22 03:26:24;;;;;;;29.23;5.67;;;;;;;0.05;85.51;100806.56;5021832;28;20092;-68
2021/03/22 03:28:50;;;;;;;21.97;3.80;;;;;;;0.05;85.24;100807.44;5022228;28;20484;-68
2021/03/22 03:31:15;;;;;;;27.70;4.70;;;;;;;0.11;85.04;100815.50;5025240;28;20033;-68
2021/03/22 03:33:41;;;;;;;30.70;6.00;;;;;;;0.15;84.79;100814.78;5024444;28;20492;-68
2021/03/22 03:36:06;;;;;;;30.20;5.93;;;;;;;0.24;85.06;100818.56;5022476;28;20542;-68
2021/03/22 03:38:32;;;;;;;28.53;5.77;;;;;;;0.29;84.55;100812.75;5021660;28;20072;-68
2021/03/22 03:40:57;;;;;;;29.33;5.07;;;;;;;0.38;83.81;100820.03;5022833;28;20041;-68
2021/03/22 03:43:22;;;;;;;28.67;6.33;;;;;;;0.39;83.61;100814.00;5025054;28;20120;-68
2021/03/22 03:45:51;;;;;;;28.50;4.77;;;;;;;0.44;83.91;100812.47;5025030;28;20029;-68
2021/03/22 03:48:23;;;;;;;27.53;5.13;;;;;;;0.47;83.99;100812.56;5029219;28;20041;-68
2021/03/22 03:50:56;;;;;;;29.60;5.20;;;;;;;0.59;83.48;100817.38;5021696;28;20034;-68
2021/03/22 03:53:21;;;;;;;24.98;4.50;;;;;;;0.65;83.44;100812.41;5024836;28;20052;-68
2021/03/22 03:55:48;;;;;;;29.83;5.33;;;;;;;0.76;83.43;100826.72;5024527;28;20041;-68
2021/03/22 03:58:13;;;;;;;29.50;4.23;;;;;;;0.85;83.25;100826.16;5025872;28;20380;-68
2021/03/22 04:00:43;;;;;;;33.80;5.47;;;;;;;0.96;82.73;100824.84;5024623;28;20037;-68
2021/03/22 04:03:41;;;;;;;29.77;5.53;;;;;;;0.97;82.68;100820.53;5021840;28;20036;-68
2021/03/22 04:06:08;;;;;;;24.67;5.13;;;;;;;1.07;81.67;100833.03;5011502;28;20058;-68
2021/03/22 04:08:38;;;;;;;21.83;5.23;;;;;;;1.09;81.72;100831.38;5024548;28;20168;-68
2021/03/22 04:11:06;;;;;;;27.80;4.73;;;;;;;1.11;81.65;100824.53;5022351;28;20087;-68
2021/03/22 04:13:32;;;;;;;28.20;5.00;;;;;;;1.19;81.28;100830.91;5021087;28;20144;-68
2021/03/22 04:15:58;;;;;;;33.50;6.33;;;;;;;1.20;81.28;100824.84;5022057;28;20038;-68
2021/03/22 04:18:24;;;;;;;25.83;5.33;;;;;;;1.19;81.99;100817.03;5024428;28;20035;-68
2021/03/22 04:20:49;;;;;;;27.03;5.03;;;;;;;1.23;81.53;100824.09;5024061;28;20033;-68
2021/03/22 04:23:15;;;;;;;26.87;4.70;;;;;;;1.26;81.24;100834.63;5020758;28;20041;-69
2021/03/22 04:25:40;;;;;;;24.17;5.07;;;;;;;1.22;81.44;100836.22;5020705;28;20389;-68
2021/03/22 04:28:06;;;;;;;22.90;4.10;;;;;;;1.17;81.18;100829.94;5023024;28;20046;-68
2021/03/22 04:30:31;;;;;;;32.70;6.33;;;;;;;1.22;81.54;100838.81;5024114;28;20044;-69
2021/03/22 04:32:56;;;;;;;30.05;5.35;;;;;;;1.21;81.50;100829.25;5023165;28;20044;-68
2021/03/22 04:35:25;;;;;;;30.40;5.30;;;;;;;1.26;81.48;100839.81;5020510;28;20467;-68
2021/03/22 04:37:51;;;;;;;24.13;4.10;;;;;;;1.24;81.56;100831.97;5019713;28;20535;-69
2021/03/22 04:40:21;;;;;;;31.40;4.97;;;;;;;1.26;81.44;100830.31;5031529;28;20480;-68
2021/03/22 04:42:46;;;;;;;36.73;5.20;;;;;;;1.25;81.74;100823.31;5024119;28;20033;-68
2021/03/22 04:45:12;;;;;;;35.67;6.40;;;;;;;1.25;81.39;100828.50;5023224;28;20270;-68
2021/03/22 04:47:38;;;;;;;29.03;5.93;;;;;;;1.20;81.71;100819.66;5023907;28;20029;-68
2021/03/22 04:50:04;;;;;;;26.63;5.23;;;;;;;1.23;81.89;100825.00;5021769;28;20061;-68
2021/03/22 04:52:30;;;;;;;24.80;4.60;;;;;;;1.20;81.52;100834.38;5020117;28;20136;-69
2021/03/22 04:54:55;;;;;;;27.90;4.07;;;;;;;1.20;82.00;100830.06;5021296;28;20128;-68
2021/03/22 04:57:30;;;;;;;29.47;4.67;;;;;;;1.20;81.48;100840.47;5023508;28;20041;-68
2021/03/22 04:59:57;;;;;;;24.93;4.40;;;;;;;1.22;81.95;100837.94;5022430;28;20041;-68
2021/03/22 05:02:22;;;;;;;25.87;5.07;;;;;;;1.20;81.81;100840.47;5020179;28;20041;-69
2021/03/22 05:04:48;;;;;;;26.50;5.63;;;;;;;1.19;81.46;100838.69;5020129;28;20034;-69
2021/03/22 05:07:15;;;;;;;22.57;3.90;;;;;;;1.24;81.14;100844.06;5023251;28;20468;-69
2021/03/22 05:09:41;;;;;;;22.07;4.17;;;;;;;1.23;81.82;100843.19;5023406;28;20048;-68
2021/03/22 05:12:07;;;;;;;30.77;5.57;;;;;;;1.22;81.66;100840.53;5021080;28;20112;-68
2021/03/22 05:14:32;;;;;;;23.55;4.75;;;;;;;1.34;81.62;100847.88;5020128;28;20044;-69
2021/03/22 05:16:58;;;;;;;21.80;4.25;;;;;;;1.29;81.24;100846.00;5033332;28;20034;-69
2021/03/22 05:19:23;;;;;;;24.03;4.57;;;;;;;1.34;81.24;100847.88;5019960;28;20038;-69
2021/03/22 05:21:49;;;;;;;33.67;5.22;;;;;;;1.35;81.34;100855.75;5019887;28;20046;-69
2021/03/22 05:24:15;;;;;;;20.63;4.65;;;;;;;1.39;80.98;100861.94;5023297;28;20046;-69
2021/03/22 05:26:40;;;;;;;19.98;4.32;;;;;;;1.48;81.01;100857.06;5021644;28;20037;-69
2021/03/22 05:29:05;;;;;;;28.47;4.83;;;;;;;1.56;80.74;100867.75;5020962;28;20037;-69
2021/03/22 05:31:32;;;;;;;21.05;4.50;;;;;;;1.58;80.24;100868.69;5019776;28;20153;-69
2021/03/22 05:33:57;;;;;;;19.80;4.33;;;;;;;1.61;80.78;100869.69;5021064;28;20046;-69
2021/03/22 05:36:23;;;;;;;23.60;5.47;;;;;;;1.65;80.39;100868.06;5022940;28;20038;-69
2021/03/22 05:38:48;;;;;;;31.37;4.63;;;;;;;1.71;80.57;100865.69;5023121;28;20045;-69
2021/03/22 05:41:19;;;;;;;27.67;4.80;;;;;;;1.74;79.50;100871.00;5015044;28;20033;-69
2021/03/22 05:44:13;;;;;;;22.58;4.72;;;;;;;1.80;80.28;100880.75;5022938;28;20087;-69
2021/03/22 05:46:53;;;;;;;23.90;5.65;;;;;;;1.85;80.09;100879.19;5009092;28;20042;-68
2021/03/22 05:49:30;;;;;;;21.40;5.85;;;;;;;1.88;79.70;100884.50;5027545;28;20041;-69
2021/03/22 05:52:22;;;;;;;25.70;5.80;;;;;;;1.88;80.04;100881.88;5020631;28;20072;-69
2021/03/22 05:54:57;;;;;;;31.40;6.75;;;;;;;1.94;79.14;100879.50;5022978;28;20038;-69
2021/03/22 05:57:43;;;;;;;21.83;6.05;;;;;;;2.04;79.14;100884.16;5033848;28;20064;-69
2021/03/22 06:00:15;;;;;;;31.27;12.05;;;;;;;2.13;78.94;100879.28;5032556;28;20037;-69
2021/03/22 06:02:52;;;;;;;20.65;5.10;;;;;;;2.16;77.96;100884.59;5028733;28;20072;-69
2021/03/22 06:05:33;;;;;;;26.30;5.40;;;;;;;2.16;78.40;100881.13;5030904;28;20036;-69
2021/03/22 06:08:10;;;;;;;28.02;6.68;;;;;;;2.14;78.12;100877.56;5024726;28;20072;-69
2021/03/22 06:10:44;;;;;;;27.48;5.28;;;;;;;2.23;77.69;100876.97;5026768;28;20041;-69
2021/03/22 06:13:09;;;;;;;22.60;5.72;;;;;;;2.29;77.77;100882.41;5024062;28;20083;-69
2021/03/22 06:15:40;;;;;;;26.48;6.25;;;;;;;2.32;77.73;100882.50;5023115;28;20502;-69
2021/03/22 06:18:35;;;;;;;24.83;5.32;;;;;;;2.31;77.70;100883.34;5025594;28;20030;-69
2021/03/22 06:21:12;;;;;;;22.63;4.68;;;;;;;2.38;77.80;100893.09;5024889;28;20022;-69
2021/03/22 06:23:43;;;;;;;26.27;5.15;;;;;;;2.44;77.80;100888.13;5023167;28;20073;-69
2021/03/22 06:26:39;;;;;;;34.22;6.25;;;;;;;2.48;77.00;100899.50;5025741;28;20538;-69
2021/03/22 06:29:26;;;;;;;32.38;6.68;;;;;;;2.54;76.65;100903.22;5029716;28;20178;-69
2021/03/22 06:31:56;;;;;;;21.77;4.95;;;;;;;2.58;77.12;100905.06;5021993;28;20140;-69
2021/03/22 06:34:43;;;;;;;26.08;5.38;;;;;;;2.57;76.84;100907.66;5025280;28;20469;-69
2021/03/22 06:37:12;;;;;;;22.00;5.43;;;;;;;2.60;77.02;100905.13;5036430;28;20039;-69
2021/03/22 06:39:37;;;;;;;22.15;5.45;;;;;;;2.62;77.38;100906.06;5026103;28;20029;-69
2021/03/22 06:42:17;;;;;;;33.90;5.68;;;;;;;2.72;77.00;100902.00;5024393;28;20683;-69
2021/03/22 06:44:42;;;;;;;24.15;5.03;;;;;;;2.91;76.29;100911.28;5022869;28;20033;-69
2021/03/22 06:47:19;;;;;;;25.75;5.55;;;;;;;3.05;76.91;100916.09;5028313;28;20543;-69
2021/03/22 06:49:48;;;;;;;26.27;5.50;;;;;;;3.23;76.07;100922.72;5027837;28;20044;-69
2021/03/22 06:52:18;;;;;;;28.73;7.20;;;;;;;3.38;76.26;100924.88;5025837;28;20038;-69
2021/03/22 06:54:54;;;;;;;22.02;5.75;;;;;;;3.44;75.48;100939.00;5026015;28;20034;-69
2021/03/22 06:57:21;;;;;;;27.63;6.07;;;;;;;3.46;74.93;100933.84;5022394;28;20058;-69
2021/03/22 07:00:09;;;;;;;19.13;4.65;;;;;;;3.42;74.51;100939.78;5022443;28;20029;-69
2021/03/22 07:02:51;;;;;;;25.00;5.25;;;;;;;3.42;74.77;100937.19;5025822;28;20476;-69
2021/03/22 07:05:26;;;;;;;27.90;5.47;;;;;;;3.47;74.42;100935.59;5022139;28;20041;-69
2021/03/22 07:07:55;;;;;;;22.98;5.70;;;;;;;3.45;74.96;100943.38;5022502;28;20408;-69
2021/03/22 07:10:22;;;;;;;30.35;6.07;;;;;;;3.58;74.69;100946.34;5025618;28;20041;-69
2021/03/22 07:13:02;;;;;;;25.95;5.57;;;;;;;3.61;74.20;100949.03;5025560;28;20480;-69
2021/03/22 07:15:32;;;;;;;24.77;5.80;;;;;;;3.78;73.99;100958.25;5028343;28;20477;-69
2021/03/22 07:18:25;;;;;;;27.80;5.95;;;;;;;3.75;73.23;100958.16;5023307;28;20136;-69
2021/03/22 07:20:59;;;;;;;;;;;;;;;3.67;73.62;100965.78;5025627;28;20064;-69
2021/03/22 07:23:31;;;;;;;24.40;5.68;;;;;;;3.66;73.59;100969.19;5021866;28;19968;-69
2021/03/22 07:26:01;;;;;;;;;;;;;;;3.67;73.46;100976.22;5023336;28;20033;-69
2021/03/22 07:28:46;;;;;;;26.77;5.80;;;;;;;3.82;73.57;100978.34;5025482;28;19960;-69
2021/03/22 07:31:23;;;;;;;23.40;5.47;;;;;;;3.96;72.96;100984.00;5022114;28;20511;-69
2021/03/22 07:34:11;;;;;;;24.35;6.03;;;;;;;3.99;72.51;100973.63;5021956;28;20026;-69
2021/03/22 07:36:47;;;;;;;22.63;5.55;;;;;;;4.16;72.29;100979.28;5025070;28;20049;-69
2021/03/22 07:39:34;;;;;;;27.42;5.97;;;;;;;4.16;72.34;100980.16;5020669;28;20050;-69
2021/03/22 07:42:15;;;;;;;31.13;5.57;;;;;;;4.17;72.11;100975.84;5023106;28;20080;-69
2021/03/22 07:45:05;;;;;;;26.20;5.20;;;;;;;4.19;71.40;100984.59;5025104;28;20391;-69
2021/03/22 07:47:44;;;;;;;27.95;6.70;;;;;;;4.16;72.10;100974.06;5021426;28;20092;-69
2021/03/22 07:50:38;;;;;;;26.13;5.85;;;;;;;4.11;71.87;100975.66;5024523;28;20052;-68
2021/03/22 07:53:12;;;;;;;26.25;5.78;;;;;;;4.04;72.08;100978.97;5022991;28;20041;-69
2021/03/22 07:55:46;;;;;;;21.40;5.63;;;;;;;4.07;72.09;100971.22;5021138;28;20033;-69
2021/03/22 07:58:36;;;;;;;23.35;5.88;;;;;;;4.22;71.64;100986.41;5024045;28;20076;-69
2021/03/22 08:01:22;;;;;;;25.98;7.68;;;;;;;4.28;71.25;100976.13;5033538;28;20143;-69
2021/03/22 08:03:54;;;;;;;28.17;6.72;;;;;;;4.13;71.31;100984.44;5026019;28;20117;-69
2021/03/22 08:06:50;;;;;;;18.70;5.05;;;;;;;4.03;72.16;100977.19;5024447;28;20384;-69
2021/03/22 08:09:28;;;;;;;28.83;5.45;;;;;;;4.33;71.78;100988.47;5023147;28;20034;-69
2021/03/22 08:12:35;;;;;;;29.63;6.05;;;;;;;4.55;71.29;100997.75;5021558;28;20033;-70
2021/03/22 08:15:20;;;;;;;30.80;5.60;;;;;;;4.51;70.17;100993.31;5022827;28;20116;-70
2021/03/22 08:18:25;;;;;;;30.58;6.45;;;;;;;4.74;69.68;101004.34;5032696;28;20041;-69
2021/03/22 08:21:07;;;;;;;24.38;5.20;;;;;;;4.88;68.07;101001.19;5014693;28;20492;-69
2021/03/22 08:23:45;;;;;;;24.38;5.75;;;;;;;4.91;67.90;101002.13;5026581;28;20038;-69
2021/03/22 08:26:17;;;;;;;25.83;6.32;;;;;;;5.04;68.42;101011.16;5025897;28;20095;-69
2021/03/22 08:28:57;;;;;;;21.80;6.30;;;;;;;5.11;67.98;101005.25;5034791;28;20052;-69
2021/03/22 08:31:49;;;;;;;25.98;5.50;;;;;;;5.33;68.04;101005.72;5020685;28;20091;-69
2021/03/22 08:34:30;;;;;;;24.23;5.50;;;;;;;5.49;66.50;100999.97;5020847;28;20042;-69
2021/03/22 08:37:09;;;;;;;27.70;6.00;;;;;;;5.48;66.78;101019.19;5021358;28;20116;-70
2021/03/22 08:39:46;;;;;;;24.45;4.25;;;;;;;5.37;65.81;101012.78;5023993;28;20495;-69
2021/03/22 08:42:21;;;;;;;24.98;6.53;;;;;;;5.26;65.67;101021.28;5020975;28;20040;-69
2021/03/22 08:44:59;;;;;;;22.02;5.30;;;;;;;5.19;65.87;101019.38;5020516;28;20042;-69
2021/03/22 08:47:45;;;;;;;25.45;6.07;;;;;;;5.09;67.61;101021.75;5023830;28;20443;-69
2021/03/22 08:50:17;;;;;;;22.15;5.93;;;;;;;5.15;66.89;101022.78;5020934;28;20038;-69
2021/03/22 08:53:11;;;;;;;24.15;5.32;;;;;;;4.97;66.98;101033.66;5020164;28;20091;-69
2021/03/22 08:55:40;;;;;;;21.17;5.25;;;;;;;4.91;67.22;101037.88;5023509;28;20034;-69
2021/03/22 08:58:14;;;;;;;29.83;5.63;;;;;;;4.89;66.82;101035.22;5021489;28;20041;-69
2021/03/22 09:00:48;;;;;;;21.15;5.72;;;;;;;5.11;67.58;101033.13;5020256;28;20473;-69
2021/03/22 09:03:13;;;;;;;21.40;4.50;;;;;;;5.55;65.93;101034.16;5023474;28;20052;-69
2021/03/22 09:05:40;;;;;;;26.42;5.32;;;;;;;5.71;64.31;101044.13;5023420;28;20041;-69
2021/03/22 09:08:21;;;;;;;22.33;5.70;;;;;;;5.65;64.60;101033.50;5021292;28;20492;-69
2021/03/22 09:10:50;;;;;;;23.30;4.80;;;;;;;5.61;64.34;101044.78;5019933;28;20489;-69
2021/03/22 09:13:36;;;;;;;19.27;4.88;;;;;;;5.56;64.96;101046.41;5028085;28;20036;-69
2021/03/22 09:16:20;;;;;;;17.67;5.03;;;;;;;5.60;64.85;101047.34;5021476;28;20394;-69
2021/03/22 09:19:03;;;;;;;21.08;5.18;;;;;;;5.61;65.11;101047.41;5023443;28;20045;-69
2021/03/22 09:21:29;;;;;;;22.80;5.55;;;;;;;5.68;63.37;101046.66;5019883;28;20042;-69
2021/03/22 09:23:54;;;;;;;22.20;5.07;;;;;;;5.67;64.19;101044.03;5020854;28;20034;-69
2021/03/22 09:26:51;;;;;;;18.33;4.78;;;;;;;5.79;64.72;101044.31;5023081;28;20500;-69
2021/03/22 09:29:41;;;;;;;21.55;5.30;;;;;;;5.89;63.72;101040.13;5027558;28;20034;-69
2021/03/22 09:32:38;;;;;;;12.73;3.58;;;;;;;6.05;60.28;101038.72;5021313;28;20041;-69
2021/03/22 09:35:13;;;;;;;19.80;4.10;;;;;;;6.16;60.02;101037.22;5020714;28;20056;-69
2021/03/22 09:37:56;;;;;;;19.45;3.88;;;;;;;6.26;59.13;101040.91;5019759;28;20087;-69
2021/03/22 09:40:25;;;;;;;22.25;4.40;;;;;;;6.20;59.38;101043.41;5026973;28;20045;-69
2021/03/22 09:43:06;;;;;;;17.90;4.57;;;;;;;6.21;59.19;101042.53;5019871;28;20026;-69
2021/03/22 09:45:34;;;;;;;16.83;4.30;;;;;;;6.14;58.39;101031.94;5022678;28;20120;-70
2021/03/22 09:48:21;;;;;;;16.10;3.83;;;;;;;6.28;58.84;101033.94;5021513;28;20045;-70
2021/03/22 09:50:52;;;;;;;19.80;5.22;;;;;;;6.36;58.52;101022.75;5019389;28;20052;-69
2021/03/22 09:53:46;;;;;;;16.55;4.30;;;;;;;6.47;57.49;101036.09;5023205;28;20060;-70
2021/03/22 09:56:21;;;;;;;18.52;5.15;;;;;;;6.49;56.98;101029.09;5019754;28;20049;-70
2021/03/22 09:58:47;;;;;;;14.43;3.55;;;;;;;6.60;57.77;101026.69;5019622;28;20044;-70
2021/03/22 10:01:30;;;;;;;20.75;4.38;;;;;;;6.56;55.73;101023.13;5022512;28;20033;-68
2021/03/22 10:04:12;;;;;;;18.13;3.85;;;;;;;6.54;55.23;101022.22;5021928;28;20474;-68
2021/03/22 10:06:40;;;;;;;21.42;5.22;;;;;;;6.54;56.57;101024.84;5019263;28;20042;-68
2021/03/22 10:09:14;;;;;;;11.50;3.78;;;;;;;6.71;57.31;101024.28;5021111;28;20060;-68
2021/03/22 10:11:43;;;;;;;11.07;2.85;;;;;;;6.87;54.80;101042.03;5023521;28;20029;-68
2021/03/22 10:14:17;;;;;;;13.52;3.45;;;;;;;6.83;55.01;101028.84;5029718;28;20120;-69
2021/03/22 10:16:43;;;;;;;12.63;2.72;;;;;;;7.00;52.92;101016.88;5030169;28;20041;-69
2021/03/22 10:19:21;;;;;;;13.15;2.50;;;;;;;7.15;51.41;101025.00;5023422;28;20041;-68
2021/03/22 10:21:53;;;;;;;16.42;3.00;;;;;;;7.22;50.51;101023.34;5022725;28;20443;-68
2021/03/22 10:24:18;;;;;;;11.65;2.85;;;;;;;7.18;48.24;101017.19;5026935;28;20071;-68
2021/03/22 10:26:48;;;;;;;12.23;2.70;;;;;;;7.18;48.24;101009.28;5019129;28;20131;-68
2021/03/22 10:29:19;;;;;;;13.90;2.78;;;;;;;7.34;49.22;101018.28;5022471;28;20037;-69
2021/03/22 10:31:47;;;;;;;13.23;3.33;;;;;;;7.51;51.21;101013.25;5022583;28;20037;-68
2021/03/22 10:34:23;;;;;;;11.57;2.55;;;;;;;7.72;48.43;101015.31;5019635;28;20462;-68
2021/03/22 10:36:48;;;;;;;12.20;3.00;;;;;;;7.85;48.36;101005.84;5019252;28;20488;-68
2021/03/22 10:39:37;;;;;;;12.48;3.22;;;;;;;7.97;46.32;101013.00;5022476;28;20040;-68
2021/03/22 10:42:19;;;;;;;9.98;2.17;;;;;;;8.17;45.76;101015.84;5021965;28;20738;-68
2021/03/22 10:44:45;;;;;;;11.02;2.75;;;;;;;8.34;46.31;101006.41;5022771;28;20512;-68
2021/03/22 10:47:15;;;;;;;10.43;2.38;;;;;;;8.66;45.66;101000.59;5025350;28;20040;-68
2021/03/22 10:49:40;;;;;;;10.52;2.80;;;;;;;8.72;44.47;100996.31;5026397;28;20034;-68
2021/03/22 10:52:38;;;;;;;13.35;3.03;;;;;;;8.44;44.38;100999.53;5023726;28;20480;-68
2021/03/22 10:55:04;;;;;;;7.47;1.67;;;;;;;8.34;44.73;101004.66;5012225;28;20058;-69
2021/03/22 10:57:42;;;;;;;8.00;1.95;;;;;;;8.45;44.98;101004.78;5025951;28;20120;-69
2021/03/22 11:00:28;;;;;;;8.45;2.80;;;;;;;8.41;43.87;100997.75;5023300;28;20037;-69
2021/03/22 11:02:55;;;;;;;8.82;2.45;;;;;;;8.52;44.56;101011.00;5030583;28;20068;-69
2021/03/22 11:05:28;;;;;;;9.27;2.17;;;;;;;8.59;43.26;101004.03;5029533;28;20775;-69
2021/03/22 11:08:05;;;;;;;10.60;2.13;;;;;;;8.67;43.20;101003.28;5023051;28;20757;-69
2021/03/22 11:10:35;;;;;;;7.70;1.95;;;;;;;8.43;43.85;100998.63;5025799;28;20104;-69
2021/03/22 11:13:02;;;;;;;9.15;2.17;;;;;;;8.41;44.60;101007.38;5024152;28;20486;-68
2021/03/22 11:15:34;;;;;;;8.40;2.10;;;;;;;8.67;45.46;100989.22;5022000;28;20057;-69
2021/03/22 11:18:03;;;;;;;10.30;2.80;;;;;;;8.81;43.10;101007.78;5023392;28;20512;-69
2021/03/22 11:20:32;;;;;;;9.18;2.40;;;;;;;8.60;42.67;101018.97;5025057;28;20425;-69
2021/03/22 11:23:41;;;;;;;9.65;2.35;;;;;;;8.42;43.54;101003.88;5017229;28;20083;-69
2021/03/22 11:26:20;;;;;;;6.93;1.63;;;;;;;8.47;44.02;101000.44;5030653;28;20048;-69
2021/03/22 11:28:45;;;;;;;8.77;2.10;;;;;;;8.72;44.13;100991.03;5023144;28;20042;-68
2021/03/22 11:31:25;;;;;;;8.20;1.92;;;;;;;8.85;41.77;100999.00;5024585;28;20503;-68
2021/03/22 11:34:01;;;;;;;7.53;1.90;;;;;;;8.68;43.50;101006.78;5025134;28;20558;-69
2021/03/22 11:36:34;;;;;;;9.35;2.05;;;;;;;8.51;43.34;101015.41;5027500;28;20034;-68
2021/03/22 11:39:11;;;;;;;6.47;2.17;;;;;;;8.40;42.32;101009.13;5031649;28;20048;-69
2021/03/22 11:42:00;;;;;;;6.75;1.85;;;;;;;8.63;42.99;101013.75;5021758;28;20034;-68
2021/03/22 11:44:30;;;;;;;7.72;1.98;;;;;;;8.88;42.21;101001.66;5028309;28;20084;-69
2021/03/22 11:47:22;;;;;;;10.05;2.00;;;;;;;9.40;40.17;100995.03;5022210;28;20050;-69
2021/03/22 11:49:49;;;;;;;9.55;2.15;;;;;;;9.12;41.56;100988.72;5025039;28;20484;-69
2021/03/22 11:52:30;;;;;;;7.72;1.65;;;;;;;8.95;40.26;100995.59;5020399;28;20510;-69
2021/03/22 11:55:07;;;;;;;6.85;1.33;;;;;;;8.65;40.53;100986.59;5021349;28;20041;-68